• Join FlightAware (Why Join?)
  • Login
  • US Flag 
08:17AM EDT


 

Airport Tracker/Info


-or-


 

Live Flight TrackerFlight Track Log ✈ N292LK ✈ 11-Jul-2013 ✈ KMMU - KDLZ

Flight Track Log - Related Links

Times and Time Zones

All times are in EDT time to prevent confusion due to time zone crossing. See the N292LK flight status page for this flight to view local times or setup timezone preferences in your user account.

Time Position Orientation Groundspeed Altitude Reporting Facility
EDT Latitude Longitude Course Direction KTS MPH feet Rate Location/Type
05:19PM 40.8667 -74.3167 237° Southwest 115 132 2,100  Level New York TRACON
05:20PM 40.8333 -74.3167 180° South 100 115 2,600 420 Climbing New York TRACON
05:21PM 40.8167 -74.3167 180° South 101 116 3,100 420 Climbing New York TRACON
05:22PM 40.8000 -74.3500 237° Southwest 109 125 3,500 300 Climbing New York TRACON
05:23PM 40.7833 -74.3833 237° Southwest 109 125 3,800 300 Climbing New York TRACON
05:24PM 40.6909 -74.6516 237° Southwest  Level FlightAware Approximate
05:24PM 40.7667 -74.4167 237° Southwest 123 142 4,100  Level New York TRACON
05:25PM 40.7333 -74.4667 229° Southwest 137 158 4,000 -60 Descending New York TRACON
05:26PM 40.7167 -74.5000 237° Southwest 138 159 4,000  Level New York TRACON
05:27PM 40.7000 -74.5333 237° Southwest 141 162 4,000  Level New York TRACON
05:28PM 40.6667 -74.5833 229° Southwest 143 165 4,000  Level New York TRACON
05:30PM 40.6659 -74.6736 243° Southwest  Level Estimated
05:37PM 40.5633 -74.9774 246° West  Level FlightAware Approximate
05:38PM 40.5633 -75.0249 270° West  Level Estimated
05:39PM 40.5633 -75.0723 272° West  Level Estimated
05:40PM 40.5637 -75.1198 271° West  Level FlightAware Approximate
05:41PM 40.5641 -75.1673 271° West  Level FlightAware Approximate
05:42PM 40.5644 -75.2147 271° West  Level FlightAware Approximate
05:43PM 40.5647 -75.2622 271° West  Level FlightAware Approximate
05:44PM 40.5650 -75.3096 270° West  Level FlightAware Approximate
05:45PM 40.5653 -75.3571 270° West  Level FlightAware Approximate
05:46PM 40.5656 -75.4046 270° West  Level FlightAware Approximate
05:47PM 40.5658 -75.4520 270° West  Level FlightAware Approximate
05:48PM 40.5660 -75.4995 270° West  Level FlightAware Approximate
05:49PM 40.5662 -75.5470 270° West  Level FlightAware Approximate
05:50PM 40.5664 -75.5944 270° West  Level FlightAware Approximate
05:51PM 40.5666 -75.6419 270° West  Level FlightAware Approximate
05:52PM 40.5662 -75.6893 250° West  Level Estimated
05:53PM 40.5538 -75.7338 250° West  Level FlightAware Approximate
05:54PM 40.5412 -75.7784 250° West  Level FlightAware Approximate
05:55PM 40.5287 -75.8228 250° West  Level FlightAware Approximate
05:56PM 40.5162 -75.8673 250° West  Level FlightAware Approximate
05:57PM 40.5036 -75.9118 250° West  Level FlightAware Approximate
05:58PM 40.4910 -75.9562 250° West  Level FlightAware Approximate
05:59PM 40.4911 -76.0036 259° West  Level Estimated
06:00PM 40.4797 -76.0486 252° West  Level FlightAware Approximate
06:01PM 40.4798 -76.0960 252° West  Level Estimated
06:02PM 40.4623 -76.1374 241° Southwest  Level FlightAware Approximate
06:03PM 40.4625 -76.1848 246° West  Level Estimated
06:04PM 40.4435 -76.2251 238° Southwest  Level FlightAware Approximate
06:05PM 40.4244 -76.2653 238° Southwest  Level FlightAware Approximate
06:06PM 40.4248 -76.3126 251° West  Level Estimated
06:07PM 40.4108 -76.3562 247° West  Level FlightAware Approximate
06:08PM 40.3968 -76.3999 247° West  Level FlightAware Approximate
06:09PM 40.3827 -76.4435 247° West  Level FlightAware Approximate
06:10PM 40.3686 -76.4871 247° West  Level FlightAware Approximate
06:11PM 40.3546 -76.5306 247° West  Level FlightAware Approximate
06:12PM 40.3405 -76.5742 247° West  Level FlightAware Approximate
06:13PM 40.3264 -76.6177 247° West  Level FlightAware Approximate
06:14PM 40.3122 -76.6612 247° West  Level FlightAware Approximate
06:15PM 40.2981 -76.7047 247° West  Level FlightAware Approximate
06:16PM 40.2993 -76.7519 274° West  Level Estimated
06:17PM 40.2994 -76.7992 270° West  Level FlightAware Approximate
06:18PM 40.2996 -76.8465 270° West  Level FlightAware Approximate
06:19PM 40.2997 -76.8937 270° West  Level FlightAware Approximate
06:20PM 40.2998 -76.9410 270° West  Level FlightAware Approximate
06:21PM 40.2999 -76.9883 270° West  Level FlightAware Approximate
06:22PM 40.3000 -77.0355 270° West  Level FlightAware Approximate
06:23PM 40.3010 -77.0828 270° West  Level Estimated
06:24PM 40.3010 -77.1301 270° West  Level FlightAware Approximate
06:25PM 40.3009 -77.1773 270° West  Level FlightAware Approximate
06:26PM 40.3008 -77.2246 270° West  Level FlightAware Approximate
06:27PM 40.3007 -77.2719 270° West  Level FlightAware Approximate
06:28PM 40.3006 -77.3191 270° West  Level FlightAware Approximate
06:29PM 40.3004 -77.3664 270° West  Level FlightAware Approximate
06:30PM 40.3003 -77.4137 270° West  Level FlightAware Approximate
06:30PM 40.3100 -77.6153 269° West 143 165 6,200  Level Cleveland Center
06:31PM 40.3013 -77.4609 270° West  Level Estimated
06:31PM 40.3097 -77.6861 270° West 140 161 6,100  Level Cleveland Center
06:32PM 40.3008 -77.5082 269° West  Level FlightAware Approximate
06:32PM 40.3111 -77.7378 272° West 144 166 6,100  Level Cleveland Center
06:33PM 40.3017 -77.5555 270° West  Level Estimated
06:33PM 40.3103 -77.7894 269° West 142 163 6,100  Level Cleveland Center
06:34PM 40.3014 -77.6027 269° West  Level FlightAware Approximate
06:34PM 40.3114 -77.8439 272° West 139 160 6,000  Level Cleveland Center
06:35PM 40.3010 -77.6500 269° West  Level FlightAware Approximate
06:35PM 40.3128 -77.8956 272° West 140 161 6,000  Level Cleveland Center
06:36PM 40.3139 -77.9392 272° West 136 157 6,000  Level Cleveland Center
06:37PM 40.3128 -77.9883 268° West 136 157 6,000  Level Cleveland Center
06:38PM 40.3119 -78.0372 269° West 139 160 6,000  Level Cleveland Center
06:39PM 40.3131 -78.0917 272° West 136 157 6,000  Level Cleveland Center
06:40PM 40.3139 -78.1378 271° West 136 157 6,000  Level Cleveland Center
06:41PM 40.3131 -78.1897 269° West 138 159 6,000  Level Cleveland Center
06:42PM 40.3161 -78.2358 275° West 133 153 6,000  Level Cleveland Center
06:43PM 40.3172 -78.2875 272° West 132 152 6,000  Level Cleveland Center
06:44PM 40.3161 -78.3394 268° West 135 155 6,000  Level Cleveland Center
06:45PM 40.3169 -78.3883 271° West 137 158 6,000  Level Cleveland Center
06:46PM 40.3158 -78.4347 268° West 135 155 6,000  Level Cleveland Center
06:47PM 40.3169 -78.4919 271° West 133 153 6,000  Level Cleveland Center
06:48PM 40.3178 -78.5381 271° West 133 153 6,000  Level Cleveland Center
06:49PM 40.3167 -78.5953 269° West 136 157 6,000  Level Cleveland Center
06:50PM 40.3175 -78.6389 271° West 135 155 6,000  Level Cleveland Center
06:51PM 40.3183 -78.6878 271° West 137 158 6,000  Level Cleveland Center
06:52PM 40.3169 -78.7369 268° West 137 158 6,000  Level Cleveland Center
06:53PM 40.3156 -78.7858 268° West 135 155 6,000  Level Cleveland Center
06:54PM 40.3183 -78.8322 275° West 132 152 6,000  Level Cleveland Center
06:55PM 40.3172 -78.8867 268° West 138 159 6,000  Level Cleveland Center
06:56PM 40.3158 -78.9358 268° West 140 161 6,000  Level Cleveland Center
06:57PM 40.3144 -78.9903 268° West 139 160 6,000  Level Cleveland Center
06:58PM 40.3131 -79.0392 268° West 136 157 6,000  Level Cleveland Center
06:59PM 40.3117 -79.0883 268° West 136 157 6,000  Level Cleveland Center
07:00PM 40.3103 -79.1428 268° West 139 160 6,000  Level Cleveland Center
07:02PM 40.3089 -79.1972 268° West 142 163 6,000  Level Cleveland Center
07:03PM 40.3075 -79.2492 268° West 140 161 6,000  Level Cleveland Center
07:04PM 40.3058 -79.3008 268° West 138 159 6,000  Level Cleveland Center
07:05PM 40.3064 -79.3497 271° West 138 159 6,000  Level Cleveland Center
07:06PM 40.3028 -79.4017 265° West 139 160 6,000 -60 Level Cleveland Center
07:08PM 40.2909 -79.4924 260° West  Level FlightAware Approximate
07:15PM 40.2755 -79.8249 267° West  Level FlightAware Approximate
07:16PM 40.2735 -79.8725 267° West  Level FlightAware Approximate
07:17PM 40.2715 -79.9200 267° West  Level FlightAware Approximate
07:17PM 40.2917 -79.9775 267° West 144 166 5,900  Level Indianapolis Center
07:18PM 40.2695 -79.9676 267° West  Level FlightAware Approximate
07:18PM 40.2836 -80.0356 260° West 155 178 5,900  Level Indianapolis Center
07:19PM 40.2675 -80.0151 267° West  Level FlightAware Approximate
07:19PM 40.2847 -80.0867 272° West 149 171 5,900  Level Indianapolis Center
07:20PM 40.2654 -80.0627 267° West  Level FlightAware Approximate
07:20PM 40.2858 -80.1369 272° West 142 163 5,900  Level Indianapolis Center
07:21PM 40.2634 -80.1102 267° West  Level FlightAware Approximate
07:21PM 40.2842 -80.1894 268° West 142 163 5,900  Level Indianapolis Center
07:22PM 40.2614 -80.1577 267° West  Level FlightAware Approximate
07:22PM 40.2800 -80.2542 265° West 145 167 5,900  Level Indianapolis Center
07:23PM 40.2753 -80.3106 264° West 150 173 6,000  Climbing Indianapolis Center
07:24PM 40.2753 -80.3464 270° West 146 168 6,000  Level Cleveland Center
07:25PM 40.2756 -80.4008 270° West 146 168 6,100  Climbing Cleveland Center
07:26PM 40.2733 -80.4525 267° West 146 168 6,000 -60 Descending Cleveland Center
07:27PM 40.2714 -80.5069 267° West 146 168 6,000  Level Cleveland Center
07:28PM 40.2694 -80.5586 267° West 146 168 6,000  Level Cleveland Center
07:29PM 40.2672 -80.6131 267° West 141 162 6,000  Level Cleveland Center
07:30PM 40.2653 -80.6647 267° West 141 162 6,100  Climbing Cleveland Center
07:31PM 40.2631 -80.7192 267° West 141 162 6,000 -60 Descending Cleveland Center
07:32PM 40.2608 -80.7736 267° West 141 162 6,000  Level Cleveland Center
07:33PM 40.2586 -80.8253 267° West 141 162 6,100  Climbing Cleveland Center
07:34PM 40.2564 -80.8797 267° West 141 162 6,000 -60 Descending Cleveland Center
07:35PM 40.2542 -80.9314 267° West 141 162 6,000  Level Cleveland Center
07:36PM 40.2519 -80.9831 267° West 141 162 6,100  Climbing Cleveland Center
07:37PM 40.2497 -81.0372 267° West 141 162 6,000  Descending Cleveland Center
07:38PM 40.2475 -81.0917 267° West 141 162 6,100  Climbing Cleveland Center
07:39PM 40.2444 -81.1336 265° West 150 173 6,000 -60 Descending Indianapolis Center
07:40PM 40.2417 -81.1892 266° West 151 174 6,000  Level Indianapolis Center
07:41PM 40.2394 -81.2433 267° West 149 171 6,100  Climbing Indianapolis Center
07:42PM 40.2378 -81.2981 268° West 149 171 6,000 -60 Descending Indianapolis Center
07:43PM 40.2356 -81.3467 267° West 143 165 6,000  Level Indianapolis Center
07:44PM 40.2325 -81.4006 266° West 142 163 6,100  Climbing Indianapolis Center
07:45PM 40.2311 -81.4536 268° West 142 163 6,100  Level Indianapolis Center
07:46PM 40.2283 -81.5050 266° West 139 160 6,100 -60 Level Indianapolis Center
07:47PM 40.2233 -81.5653 264° West 138 159 6,000 -60 Descending Indianapolis Center
07:48PM 40.2206 -81.6186 266° West 142 163 6,000  Level Indianapolis Center
07:49PM 40.2169 -81.6703 265° West 139 160 6,000  Level Indianapolis Center
07:50PM 40.2133 -81.7214 265° West 140 161 6,000  Level Indianapolis Center
07:51PM 40.2100 -81.7733 265° West 138 159 6,000  Level Indianapolis Center
07:52PM 40.2061 -81.8228 264° West 136 157 6,000  Level Indianapolis Center
07:53PM 40.2031 -81.8744 266° West 141 162 6,000  Level Indianapolis Center
07:54PM 40.1992 -81.9242 264° West 138 159 6,000  Level Indianapolis Center
07:55PM 40.1956 -81.9733 265° West 137 158 6,000  Level Indianapolis Center
07:56PM 40.1933 -82.0272 267° West 140 161 6,000  Level Indianapolis Center
07:57PM 40.1900 -82.0642 263° West 138 159 6,000  Level Indianapolis Center
07:58PM 40.1853 -82.1208 264° West 138 159 6,000  Level Indianapolis Center
07:59PM 40.1828 -82.1725 266° West 138 159 6,000  Level Indianapolis Center
08:00PM 40.1786 -82.2183 263° West 140 161 6,000  Level Indianapolis Center
08:01PM 40.1764 -82.2672 267° West 139 160 6,000  Level Indianapolis Center
08:02PM 40.1719 -82.3186 264° West 141 162 6,000  Level Indianapolis Center
08:03PM 40.1711 -82.3417 267° West 148 170 6,000  Level Indianapolis Center
08:03PM 40.1672 -82.3697 260° West 142 163 6,000  Level Indianapolis Center
08:04PM 40.1672 -82.3914 270° West 140 161 6,000  Level Indianapolis Center
08:04PM 40.1644 -82.4242 264° West 141 162 6,000  Level Indianapolis Center
08:05PM 40.1628 -82.4433 264° West 142 163 6,000  Level Indianapolis Center
08:06PM 40.1744 -82.4997 285° West 141 162 6,000  Level Indianapolis Center
08:07PM 40.1831 -82.5508 282° West 142 163 6,000 -240 Level Indianapolis Center
08:08PM 40.1925 -82.6039 283° West 146 168 5,600 -480 Descending Indianapolis Center
08:09PM 40.2019 -82.6611 282° West 156 180 5,100 -540 Descending Indianapolis Center
08:10PM 40.2119 -82.7211 282° West 162 186 4,600 -540 Descending Indianapolis Center
08:11PM 40.2231 -82.7794 284° West 163 188 4,000 -540 Descending Indianapolis Center
08:12PM 40.2325 -82.8372 282° West 163 188 3,500 -480 Descending Indianapolis Center
08:13PM 40.2422 -82.8956 282° West 163 188 3,100 -300 Descending Indianapolis Center
08:14PM 40.2503 -82.9486 281° West 161 185 3,000  Descending Indianapolis Center
08:15PM 40.2608 -83.0006 285° West 141 162 3,100  Climbing Indianapolis Center
08:16PM 40.2678 -83.0458 281° West 133 153 3,000 -120 Descending Indianapolis Center